sensor_id;sensor_type;location;lat;lon;timestamp;temperature;humidity
25937;DHT22;13733;51.178;4.450;2023-09-12T00:02:07;21.40;99.90
25937;DHT22;13733;51.178;4.450;2023-09-12T00:04:36;21.50;99.90
25937;DHT22;13733;51.178;4.450;2023-09-12T00:07:02;21.40;99.90
25937;DHT22;13733;51.178;4.450;2023-09-12T00:09:27;21.30;99.90
25937;DHT22;13733;51.178;4.450;2023-09-12T00:11:53;21.30;99.90
25937;DHT22;13733;51.178;4.450;2023-09-12T00:14:20;21.30;99.90
25937;DHT22;13733;51.178;4.450;2023-09-12T00:16:46;21.30;99.90
25937;DHT22;13733;51.178;4.450;2023-09-12T00:19:12;21.30;99.90
25937;DHT22;13733;51.178;4.450;2023-09-12T00:21:38;21.30;99.90
25937;DHT22;13733;51.178;4.450;2023-09-12T00:24:04;21.30;99.90
25937;DHT22;13733;51.178;4.450;2023-09-12T00:26:30;21.30;99.90
25937;DHT22;13733;51.178;4.450;2023-09-12T00:28:56;21.30;99.90
25937;DHT22;13733;51.178;4.450;2023-09-12T00:31:22;21.30;99.90
25937;DHT22;13733;51.178;4.450;2023-09-12T00:33:48;21.30;99.90
25937;DHT22;13733;51.178;4.450;2023-09-12T00:36:14;21.30;99.90
25937;DHT22;13733;51.178;4.450;2023-09-12T00:38:40;21.30;99.90
25937;DHT22;13733;51.178;4.450;2023-09-12T00:41:06;21.30;99.90
25937;DHT22;13733;51.178;4.450;2023-09-12T00:43:31;21.40;99.90
25937;DHT22;13733;51.178;4.450;2023-09-12T00:45:57;21.40;99.90
25937;DHT22;13733;51.178;4.450;2023-09-12T00:48:24;21.40;99.90
25937;DHT22;13733;51.178;4.450;2023-09-12T00:50:51;21.50;99.90
25937;DHT22;13733;51.178;4.450;2023-09-12T00:53:19;21.50;99.90
25937;DHT22;13733;51.178;4.450;2023-09-12T00:55:50;21.50;99.90
25937;DHT22;13733;51.178;4.450;2023-09-12T00:58:18;21.50;99.90
25937;DHT22;13733;51.178;4.450;2023-09-12T01:00:44;21.50;99.90
25937;DHT22;13733;51.178;4.450;2023-09-12T01:03:10;21.50;99.90
25937;DHT22;13733;51.178;4.450;2023-09-12T01:05:36;21.60;99.90
25937;DHT22;13733;51.178;4.450;2023-09-12T01:08:02;21.60;99.90
25937;DHT22;13733;51.178;4.450;2023-09-12T01:10:29;21.50;99.90
25937;DHT22;13733;51.178;4.450;2023-09-12T01:12:55;21.50;99.90
25937;DHT22;13733;51.178;4.450;2023-09-12T01:15:21;21.50;99.90
25937;DHT22;13733;51.178;4.450;2023-09-12T01:17:46;21.50;99.90
25937;DHT22;13733;51.178;4.450;2023-09-12T01:20:39;21.60;99.90
25937;DHT22;13733;51.178;4.450;2023-09-12T01:25:59;21.50;99.90
25937;DHT22;13733;51.178;4.450;2023-09-12T01:28:29;21.40;99.90
25937;DHT22;13733;51.178;4.450;2023-09-12T01:31:01;21.40;99.90
25937;DHT22;13733;51.178;4.450;2023-09-12T01:33:29;21.40;99.90
25937;DHT22;13733;51.178;4.450;2023-09-12T01:35:55;21.50;99.90
25937;DHT22;13733;51.178;4.450;2023-09-12T01:38:21;21.40;99.90
25937;DHT22;13733;51.178;4.450;2023-09-12T01:40:52;21.40;99.90
25937;DHT22;13733;51.178;4.450;2023-09-12T01:43:20;21.40;99.90
25937;DHT22;13733;51.178;4.450;2023-09-12T01:45:49;21.40;99.90
25937;DHT22;13733;51.178;4.450;2023-09-12T01:48:20;21.50;99.90
25937;DHT22;13733;51.178;4.450;2023-09-12T01:50:47;21.40;99.90
25937;DHT22;13733;51.178;4.450;2023-09-12T01:53:14;21.40;99.90
25937;DHT22;13733;51.178;4.450;2023-09-12T01:55:42;21.40;99.90
25937;DHT22;13733;51.178;4.450;2023-09-12T01:58:08;21.60;99.90
25937;DHT22;13733;51.178;4.450;2023-09-12T02:00:35;21.60;99.90
25937;DHT22;13733;51.178;4.450;2023-09-12T02:03:03;21.60;99.90
25937;DHT22;13733;51.178;4.450;2023-09-12T02:05:29;21.50;99.90
25937;DHT22;13733;51.178;4.450;2023-09-12T02:07:55;21.50;99.90
25937;DHT22;13733;51.178;4.450;2023-09-12T02:10:21;21.50;99.90
25937;DHT22;13733;51.178;4.450;2023-09-12T02:12:47;21.60;99.90
25937;DHT22;13733;51.178;4.450;2023-09-12T02:15:13;21.60;99.90
25937;DHT22;13733;51.178;4.450;2023-09-12T02:17:39;21.70;99.90
25937;DHT22;13733;51.178;4.450;2023-09-12T02:20:07;21.70;99.90
25937;DHT22;13733;51.178;4.450;2023-09-12T02:22:34;21.80;99.90
25937;DHT22;13733;51.178;4.450;2023-09-12T02:25:00;21.80;99.90
25937;DHT22;13733;51.178;4.450;2023-09-12T02:27:26;21.80;99.90
25937;DHT22;13733;51.178;4.450;2023-09-12T02:29:52;21.80;99.90
25937;DHT22;13733;51.178;4.450;2023-09-12T02:32:18;21.80;99.90
25937;DHT22;13733;51.178;4.450;2023-09-12T02:34:44;21.90;99.90
25937;DHT22;13733;51.178;4.450;2023-09-12T02:37:10;21.80;99.90
25937;DHT22;13733;51.178;4.450;2023-09-12T02:39:36;21.80;99.90
25937;DHT22;13733;51.178;4.450;2023-09-12T02:42:02;21.80;99.90
25937;DHT22;13733;51.178;4.450;2023-09-12T02:44:28;21.80;99.90
25937;DHT22;13733;51.178;4.450;2023-09-12T02:46:54;21.80;99.90
25937;DHT22;13733;51.178;4.450;2023-09-12T02:49:19;21.70;99.90
25937;DHT22;13733;51.178;4.450;2023-09-12T02:51:46;21.60;99.90
25937;DHT22;13733;51.178;4.450;2023-09-12T02:54:11;21.50;99.90
25937;DHT22;13733;51.178;4.450;2023-09-12T02:56:37;21.40;99.90
25937;DHT22;13733;51.178;4.450;2023-09-12T02:59:03;21.40;99.90
25937;DHT22;13733;51.178;4.450;2023-09-12T03:01:30;21.40;99.90
25937;DHT22;13733;51.178;4.450;2023-09-12T03:03:57;21.30;99.90
25937;DHT22;13733;51.178;4.450;2023-09-12T03:06:24;21.30;99.90
25937;DHT22;13733;51.178;4.450;2023-09-12T03:08:50;21.30;99.90
25937;DHT22;13733;51.178;4.450;2023-09-12T03:11:16;21.30;99.90
25937;DHT22;13733;51.178;4.450;2023-09-12T03:13:42;21.30;99.90
25937;DHT22;13733;51.178;4.450;2023-09-12T03:16:14;21.30;99.90
25937;DHT22;13733;51.178;4.450;2023-09-12T03:18:41;21.30;99.90
25937;DHT22;13733;51.178;4.450;2023-09-12T03:21:07;21.30;99.90
25937;DHT22;13733;51.178;4.450;2023-09-12T03:23:33;21.40;99.90
25937;DHT22;13733;51.178;4.450;2023-09-12T03:26:03;21.40;99.90
25937;DHT22;13733;51.178;4.450;2023-09-12T03:28:31;21.30;99.90
25937;DHT22;13733;51.178;4.450;2023-09-12T03:31:11;21.30;99.90
25937;DHT22;13733;51.178;4.450;2023-09-12T03:33:38;21.50;99.90
25937;DHT22;13733;51.178;4.450;2023-09-12T03:36:05;21.40;99.90
25937;DHT22;13733;51.178;4.450;2023-09-12T03:38:32;21.40;99.90
25937;DHT22;13733;51.178;4.450;2023-09-12T03:40:59;21.40;99.90
25937;DHT22;13733;51.178;4.450;2023-09-12T03:43:25;21.50;99.90
25937;DHT22;13733;51.178;4.450;2023-09-12T03:45:51;21.40;99.90
25937;DHT22;13733;51.178;4.450;2023-09-12T03:48:17;21.50;99.90
25937;DHT22;13733;51.178;4.450;2023-09-12T03:50:45;21.40;99.90
25937;DHT22;13733;51.178;4.450;2023-09-12T03:53:11;21.40;99.90
25937;DHT22;13733;51.178;4.450;2023-09-12T03:55:37;21.40;99.90
25937;DHT22;13733;51.178;4.450;2023-09-12T03:58:03;21.40;99.90
25937;DHT22;13733;51.178;4.450;2023-09-12T04:00:29;21.40;99.90
25937;DHT22;13733;51.178;4.450;2023-09-12T04:02:55;21.30;99.90
25937;DHT22;13733;51.178;4.450;2023-09-12T04:05:21;21.40;99.90
25937;DHT22;13733;51.178;4.450;2023-09-12T04:07:47;21.30;99.90
25937;DHT22;13733;51.178;4.450;2023-09-12T04:10:12;21.30;99.90
25937;DHT22;13733;51.178;4.450;2023-09-12T04:12:39;21.30;99.90
25937;DHT22;13733;51.178;4.450;2023-09-12T04:15:06;21.30;99.90
25937;DHT22;13733;51.178;4.450;2023-09-12T04:17:33;21.30;99.90
25937;DHT22;13733;51.178;4.450;2023-09-12T04:19:59;21.30;99.90
25937;DHT22;13733;51.178;4.450;2023-09-12T04:22:25;21.30;99.90
25937;DHT22;13733;51.178;4.450;2023-09-12T04:24:51;21.40;99.90
25937;DHT22;13733;51.178;4.450;2023-09-12T04:27:17;21.40;99.90
25937;DHT22;13733;51.178;4.450;2023-09-12T04:29:42;21.40;99.90
25937;DHT22;13733;51.178;4.450;2023-09-12T04:32:09;21.30;99.90
25937;DHT22;13733;51.178;4.450;2023-09-12T04:34:35;21.40;99.90
25937;DHT22;13733;51.178;4.450;2023-09-12T04:37:01;21.40;99.90
25937;DHT22;13733;51.178;4.450;2023-09-12T04:39:28;21.40;99.90
25937;DHT22;13733;51.178;4.450;2023-09-12T04:41:55;21.30;99.90
25937;DHT22;13733;51.178;4.450;2023-09-12T04:44:21;21.30;99.90
25937;DHT22;13733;51.178;4.450;2023-09-12T04:46:47;21.40;99.90
25937;DHT22;13733;51.178;4.450;2023-09-12T04:49:14;21.30;99.90
25937;DHT22;13733;51.178;4.450;2023-09-12T04:51:40;21.30;99.90
25937;DHT22;13733;51.178;4.450;2023-09-12T04:54:08;21.30;99.90
25937;DHT22;13733;51.178;4.450;2023-09-12T04:56:34;21.30;99.90
25937;DHT22;13733;51.178;4.450;2023-09-12T04:59:00;21.20;99.90
25937;DHT22;13733;51.178;4.450;2023-09-12T05:01:25;21.30;99.90
25937;DHT22;13733;51.178;4.450;2023-09-12T05:03:51;21.30;99.90
25937;DHT22;13733;51.178;4.450;2023-09-12T05:06:18;21.30;99.90
25937;DHT22;13733;51.178;4.450;2023-09-12T05:08:44;21.30;99.90
25937;DHT22;13733;51.178;4.450;2023-09-12T05:11:09;21.20;99.90
25937;DHT22;13733;51.178;4.450;2023-09-12T05:13:35;21.20;99.90
25937;DHT22;13733;51.178;4.450;2023-09-12T05:16:01;21.20;99.90
25937;DHT22;13733;51.178;4.450;2023-09-12T05:18:27;21.20;99.90
25937;DHT22;13733;51.178;4.450;2023-09-12T05:20:53;21.20;99.90
25937;DHT22;13733;51.178;4.450;2023-09-12T05:23:18;21.20;99.90
25937;DHT22;13733;51.178;4.450;2023-09-12T05:25:44;21.10;99.90
25937;DHT22;13733;51.178;4.450;2023-09-12T05:28:10;21.10;99.90
25937;DHT22;13733;51.178;4.450;2023-09-12T05:30:36;21.10;99.90
25937;DHT22;13733;51.178;4.450;2023-09-12T05:33:02;21.00;99.90
25937;DHT22;13733;51.178;4.450;2023-09-12T05:35:29;21.00;99.90
25937;DHT22;13733;51.178;4.450;2023-09-12T05:37:55;21.00;99.90
25937;DHT22;13733;51.178;4.450;2023-09-12T05:40:21;20.90;99.90
25937;DHT22;13733;51.178;4.450;2023-09-12T05:42:46;20.80;99.90
25937;DHT22;13733;51.178;4.450;2023-09-12T05:45:13;20.90;99.90
25937;DHT22;13733;51.178;4.450;2023-09-12T05:47:38;20.90;99.90
25937;DHT22;13733;51.178;4.450;2023-09-12T05:50:05;20.90;99.90
25937;DHT22;13733;51.178;4.450;2023-09-12T05:52:33;20.80;99.90
25937;DHT22;13733;51.178;4.450;2023-09-12T05:54:59;20.80;99.90
25937;DHT22;13733;51.178;4.450;2023-09-12T05:57:25;21.00;99.90
25937;DHT22;13733;51.178;4.450;2023-09-12T05:59:51;21.00;99.90
25937;DHT22;13733;51.178;4.450;2023-09-12T06:02:17;21.00;99.90
25937;DHT22;13733;51.178;4.450;2023-09-12T06:04:43;21.00;99.90
25937;DHT22;13733;51.178;4.450;2023-09-12T06:07:09;21.10;99.90
25937;DHT22;13733;51.178;4.450;2023-09-12T06:09:35;21.20;99.90
25937;DHT22;13733;51.178;4.450;2023-09-12T06:12:01;21.10;99.90
25937;DHT22;13733;51.178;4.450;2023-09-12T06:14:27;21.10;99.90
25937;DHT22;13733;51.178;4.450;2023-09-12T06:16:53;21.20;99.90
25937;DHT22;13733;51.178;4.450;2023-09-12T06:19:19;21.10;99.90
25937;DHT22;13733;51.178;4.450;2023-09-12T06:21:45;21.10;99.90
25937;DHT22;13733;51.178;4.450;2023-09-12T06:24:13;21.10;99.90
25937;DHT22;13733;51.178;4.450;2023-09-12T06:26:39;21.10;99.90
25937;DHT22;13733;51.178;4.450;2023-09-12T06:29:05;21.10;99.90
25937;DHT22;13733;51.178;4.450;2023-09-12T06:31:31;21.10;99.90
25937;DHT22;13733;51.178;4.450;2023-09-12T06:33:57;21.10;99.90
25937;DHT22;13733;51.178;4.450;2023-09-12T06:36:24;21.20;99.90
25937;DHT22;13733;51.178;4.450;2023-09-12T06:38:50;21.40;99.90
25937;DHT22;13733;51.178;4.450;2023-09-12T06:41:19;21.50;99.90
25937;DHT22;13733;51.178;4.450;2023-09-12T06:43:45;21.60;99.90
25937;DHT22;13733;51.178;4.450;2023-09-12T06:46:10;21.60;99.90
25937;DHT22;13733;51.178;4.450;2023-09-12T06:48:36;21.50;99.90
25937;DHT22;13733;51.178;4.450;2023-09-12T06:51:05;21.50;99.90
25937;DHT22;13733;51.178;4.450;2023-09-12T06:53:31;21.60;99.90
25937;DHT22;13733;51.178;4.450;2023-09-12T06:55:58;21.70;99.90
25937;DHT22;13733;51.178;4.450;2023-09-12T06:58:24;21.70;99.90
25937;DHT22;13733;51.178;4.450;2023-09-12T07:00:50;21.80;99.90
25937;DHT22;13733;51.178;4.450;2023-09-12T07:03:16;21.80;99.90
25937;DHT22;13733;51.178;4.450;2023-09-12T07:05:43;21.80;99.90
25937;DHT22;13733;51.178;4.450;2023-09-12T07:08:10;21.90;99.90
25937;DHT22;13733;51.178;4.450;2023-09-12T07:10:36;21.90;99.90
25937;DHT22;13733;51.178;4.450;2023-09-12T07:13:02;21.90;99.90
25937;DHT22;13733;51.178;4.450;2023-09-12T07:15:28;21.90;99.90
25937;DHT22;13733;51.178;4.450;2023-09-12T07:17:54;22.00;99.90
25937;DHT22;13733;51.178;4.450;2023-09-12T07:20:22;22.00;99.90
25937;DHT22;13733;51.178;4.450;2023-09-12T07:22:47;21.80;99.90
25937;DHT22;13733;51.178;4.450;2023-09-12T07:25:14;21.90;99.90
25937;DHT22;13733;51.178;4.450;2023-09-12T07:27:39;22.00;99.90
25937;DHT22;13733;51.178;4.450;2023-09-12T07:30:06;22.10;99.90
25937;DHT22;13733;51.178;4.450;2023-09-12T07:32:32;22.20;99.90
25937;DHT22;13733;51.178;4.450;2023-09-12T07:34:58;21.90;99.90
25937;DHT22;13733;51.178;4.450;2023-09-12T07:37:24;21.70;99.90
25937;DHT22;13733;51.178;4.450;2023-09-12T07:39:50;21.50;99.90
25937;DHT22;13733;51.178;4.450;2023-09-12T07:42:15;21.80;99.90
25937;DHT22;13733;51.178;4.450;2023-09-12T07:44:42;21.90;99.90
25937;DHT22;13733;51.178;4.450;2023-09-12T07:47:08;22.00;99.90
25937;DHT22;13733;51.178;4.450;2023-09-12T07:49:34;22.00;99.90
25937;DHT22;13733;51.178;4.450;2023-09-12T07:51:59;22.20;99.90
25937;DHT22;13733;51.178;4.450;2023-09-12T07:54:25;22.40;99.90
25937;DHT22;13733;51.178;4.450;2023-09-12T07:56:51;22.80;99.90
25937;DHT22;13733;51.178;4.450;2023-09-12T07:59:17;23.00;99.90
25937;DHT22;13733;51.178;4.450;2023-09-12T08:01:42;23.20;99.90
25937;DHT22;13733;51.178;4.450;2023-09-12T08:04:08;23.30;99.90
25937;DHT22;13733;51.178;4.450;2023-09-12T08:06:34;23.30;99.90
25937;DHT22;13733;51.178;4.450;2023-09-12T08:08:59;23.30;99.90
25937;DHT22;13733;51.178;4.450;2023-09-12T08:11:26;23.20;99.90
25937;DHT22;13733;51.178;4.450;2023-09-12T08:13:52;23.10;99.90
25937;DHT22;13733;51.178;4.450;2023-09-12T08:16:18;23.10;99.90
25937;DHT22;13733;51.178;4.450;2023-09-12T08:18:44;23.00;99.90
25937;DHT22;13733;51.178;4.450;2023-09-12T08:21:10;22.90;99.90
25937;DHT22;13733;51.178;4.450;2023-09-12T08:23:35;23.00;99.90
25937;DHT22;13733;51.178;4.450;2023-09-12T08:26:01;23.00;99.90
25937;DHT22;13733;51.178;4.450;2023-09-12T08:28:27;23.20;99.90
25937;DHT22;13733;51.178;4.450;2023-09-12T08:30:53;23.30;99.90
25937;DHT22;13733;51.178;4.450;2023-09-12T08:33:19;23.30;99.90
25937;DHT22;13733;51.178;4.450;2023-09-12T08:35:45;23.40;99.90
25937;DHT22;13733;51.178;4.450;2023-09-12T08:38:10;23.50;99.90
25937;DHT22;13733;51.178;4.450;2023-09-12T08:40:37;23.50;99.90
25937;DHT22;13733;51.178;4.450;2023-09-12T08:43:03;23.40;99.90
25937;DHT22;13733;51.178;4.450;2023-09-12T08:45:29;23.40;99.90
25937;DHT22;13733;51.178;4.450;2023-09-12T08:47:58;23.50;99.90
25937;DHT22;13733;51.178;4.450;2023-09-12T08:50:25;23.50;99.90
25937;DHT22;13733;51.178;4.450;2023-09-12T08:52:54;23.60;99.90
25937;DHT22;13733;51.178;4.450;2023-09-12T08:55:19;23.70;99.90
25937;DHT22;13733;51.178;4.450;2023-09-12T08:57:48;23.60;99.90
25937;DHT22;13733;51.178;4.450;2023-09-12T09:00:15;23.40;99.90
25937;DHT22;13733;51.178;4.450;2023-09-12T09:02:43;23.40;99.90
25937;DHT22;13733;51.178;4.450;2023-09-12T09:05:10;23.40;99.90
25937;DHT22;13733;51.178;4.450;2023-09-12T09:07:40;23.40;99.90
25937;DHT22;13733;51.178;4.450;2023-09-12T09:10:10;23.40;99.90
25937;DHT22;13733;51.178;4.450;2023-09-12T09:12:39;23.40;99.90
25937;DHT22;13733;51.178;4.450;2023-09-12T09:15:27;23.40;99.90
25937;DHT22;13733;51.178;4.450;2023-09-12T09:17:54;23.30;99.90
25937;DHT22;13733;51.178;4.450;2023-09-12T09:20:31;23.30;99.90
25937;DHT22;13733;51.178;4.450;2023-09-12T09:23:00;23.50;99.90
25937;DHT22;13733;51.178;4.450;2023-09-12T09:25:27;23.30;99.90
25937;DHT22;13733;51.178;4.450;2023-09-12T09:27:53;23.30;99.90
25937;DHT22;13733;51.178;4.450;2023-09-12T09:30:42;23.70;99.90
25937;DHT22;13733;51.178;4.450;2023-09-12T09:33:09;24.10;99.90
25937;DHT22;13733;51.178;4.450;2023-09-12T09:35:35;24.10;99.90
25937;DHT22;13733;51.178;4.450;2023-09-12T09:38:03;24.10;99.90
25937;DHT22;13733;51.178;4.450;2023-09-12T09:40:29;24.10;99.90
25937;DHT22;13733;51.178;4.450;2023-09-12T09:43:01;24.20;99.90
25937;DHT22;13733;51.178;4.450;2023-09-12T09:45:29;24.30;99.90
25937;DHT22;13733;51.178;4.450;2023-09-12T09:48:03;24.50;99.90
25937;DHT22;13733;51.178;4.450;2023-09-12T09:50:29;24.50;99.90
25937;DHT22;13733;51.178;4.450;2023-09-12T09:52:55;24.60;99.90
25937;DHT22;13733;51.178;4.450;2023-09-12T09:55:23;25.00;99.90
25937;DHT22;13733;51.178;4.450;2023-09-12T09:57:50;25.30;99.90
25937;DHT22;13733;51.178;4.450;2023-09-12T10:00:20;25.50;99.90
25937;DHT22;13733;51.178;4.450;2023-09-12T10:02:47;25.50;99.90
25937;DHT22;13733;51.178;4.450;2023-09-12T10:05:14;25.70;99.90
25937;DHT22;13733;51.178;4.450;2023-09-12T10:07:47;25.80;99.90
25937;DHT22;13733;51.178;4.450;2023-09-12T10:10:14;25.60;99.90
25937;DHT22;13733;51.178;4.450;2023-09-12T10:12:49;25.70;99.90
25937;DHT22;13733;51.178;4.450;2023-09-12T10:15:19;25.80;99.90
25937;DHT22;13733;51.178;4.450;2023-09-12T10:17:48;25.90;99.90
25937;DHT22;13733;51.178;4.450;2023-09-12T10:20:20;26.10;99.90
25937;DHT22;13733;51.178;4.450;2023-09-12T10:23:19;26.60;99.90
25937;DHT22;13733;51.178;4.450;2023-09-12T10:25:46;26.90;99.90
25937;DHT22;13733;51.178;4.450;2023-09-12T10:28:14;27.00;99.90
25937;DHT22;13733;51.178;4.450;2023-09-12T10:30:41;27.30;99.90
25937;DHT22;13733;51.178;4.450;2023-09-12T10:33:08;27.50;99.90
25937;DHT22;13733;51.178;4.450;2023-09-12T10:35:34;27.70;99.90
25937;DHT22;13733;51.178;4.450;2023-09-12T10:38:02;27.70;99.90
25937;DHT22;13733;51.178;4.450;2023-09-12T10:40:32;27.60;99.90
25937;DHT22;13733;51.178;4.450;2023-09-12T10:43:03;28.10;99.90
25937;DHT22;13733;51.178;4.450;2023-09-12T10:45:33;28.60;99.90
25937;DHT22;13733;51.178;4.450;2023-09-12T10:48:01;29.10;99.90
25937;DHT22;13733;51.178;4.450;2023-09-12T10:50:27;29.40;99.90
25937;DHT22;13733;51.178;4.450;2023-09-12T10:52:53;29.50;99.90
25937;DHT22;13733;51.178;4.450;2023-09-12T10:55:19;29.60;99.90
25937;DHT22;13733;51.178;4.450;2023-09-12T10:58:05;29.80;99.90
25937;DHT22;13733;51.178;4.450;2023-09-12T11:00:31;30.10;99.20
25937;DHT22;13733;51.178;4.450;2023-09-12T11:02:59;30.40;98.00
25937;DHT22;13733;51.178;4.450;2023-09-12T11:07:58;30.30;95.70
25937;DHT22;13733;51.178;4.450;2023-09-12T11:10:25;30.40;95.40
25937;DHT22;13733;51.178;4.450;2023-09-12T11:12:57;30.90;94.10
25937;DHT22;13733;51.178;4.450;2023-09-12T11:15:25;31.30;93.90
25937;DHT22;13733;51.178;4.450;2023-09-12T11:18:04;31.60;93.40
25937;DHT22;13733;51.178;4.450;2023-09-12T11:21:08;31.80;92.90
25937;DHT22;13733;51.178;4.450;2023-09-12T11:23:34;32.00;89.00
25937;DHT22;13733;51.178;4.450;2023-09-12T11:26:08;31.80;87.60
25937;DHT22;13733;51.178;4.450;2023-09-12T11:28:36;32.20;85.70
25937;DHT22;13733;51.178;4.450;2023-09-12T11:31:02;32.40;83.40
25937;DHT22;13733;51.178;4.450;2023-09-12T11:33:28;31.90;81.00
25937;DHT22;13733;51.178;4.450;2023-09-12T11:35:54;31.90;78.50
25937;DHT22;13733;51.178;4.450;2023-09-12T11:38:28;31.50;77.10
25937;DHT22;13733;51.178;4.450;2023-09-12T11:40:55;31.20;79.80
25937;DHT22;13733;51.178;4.450;2023-09-12T11:43:23;31.70;80.80
25937;DHT22;13733;51.178;4.450;2023-09-12T11:45:49;32.20;77.80
25937;DHT22;13733;51.178;4.450;2023-09-12T11:48:17;32.70;75.80
25937;DHT22;13733;51.178;4.450;2023-09-12T11:50:52;32.80;75.50
25937;DHT22;13733;51.178;4.450;2023-09-12T11:53:22;32.50;74.80
25937;DHT22;13733;51.178;4.450;2023-09-12T11:55:55;33.20;72.40
25937;DHT22;13733;51.178;4.450;2023-09-12T11:58:22;34.00;72.10
25937;DHT22;13733;51.178;4.450;2023-09-12T12:00:52;34.50;66.30
25937;DHT22;13733;51.178;4.450;2023-09-12T12:03:21;33.80;66.10
25937;DHT22;13733;51.178;4.450;2023-09-12T12:05:47;33.70;66.10
25937;DHT22;13733;51.178;4.450;2023-09-12T12:08:14;33.90;64.20
25937;DHT22;13733;51.178;4.450;2023-09-12T12:10:41;34.30;63.10
25937;DHT22;13733;51.178;4.450;2023-09-12T12:13:20;34.60;61.10
25937;DHT22;13733;51.178;4.450;2023-09-12T12:15:46;34.40;61.10
25937;DHT22;13733;51.178;4.450;2023-09-12T12:18:12;34.70;62.30
25937;DHT22;13733;51.178;4.450;2023-09-12T12:20:38;35.10;59.60
25937;DHT22;13733;51.178;4.450;2023-09-12T12:23:04;35.70;58.10
25937;DHT22;13733;51.178;4.450;2023-09-12T12:25:34;36.00;56.40
25937;DHT22;13733;51.178;4.450;2023-09-12T12:28:01;35.70;56.00
25937;DHT22;13733;51.178;4.450;2023-09-12T12:30:31;36.00;55.30
25937;DHT22;13733;51.178;4.450;2023-09-12T12:33:01;36.50;54.50
25937;DHT22;13733;51.178;4.450;2023-09-12T12:35:28;37.00;53.30
25937;DHT22;13733;51.178;4.450;2023-09-12T12:37:55;36.80;52.20
25937;DHT22;13733;51.178;4.450;2023-09-12T12:40:22;36.50;53.00
25937;DHT22;13733;51.178;4.450;2023-09-12T12:42:49;36.50;50.90
25937;DHT22;13733;51.178;4.450;2023-09-12T12:45:19;36.40;50.30
25937;DHT22;13733;51.178;4.450;2023-09-12T12:47:46;36.20;50.40
25937;DHT22;13733;51.178;4.450;2023-09-12T12:50:15;36.40;49.90
25937;DHT22;13733;51.178;4.450;2023-09-12T12:52:47;37.20;49.40
25937;DHT22;13733;51.178;4.450;2023-09-12T12:55:13;36.90;47.90
25937;DHT22;13733;51.178;4.450;2023-09-12T12:57:40;37.30;48.30
25937;DHT22;13733;51.178;4.450;2023-09-12T13:00:16;37.80;48.10
25937;DHT22;13733;51.178;4.450;2023-09-12T13:02:44;38.40;46.20
25937;DHT22;13733;51.178;4.450;2023-09-12T13:05:39;38.90;45.50
25937;DHT22;13733;51.178;4.450;2023-09-12T13:08:07;39.20;43.40
25937;DHT22;13733;51.178;4.450;2023-09-12T13:10:33;38.80;43.40
25937;DHT22;13733;51.178;4.450;2023-09-12T13:12:58;37.50;45.30
25937;DHT22;13733;51.178;4.450;2023-09-12T13:15:24;38.10;45.60
25937;DHT22;13733;51.178;4.450;2023-09-12T13:17:50;39.30;43.10
25937;DHT22;13733;51.178;4.450;2023-09-12T13:20:16;39.20;42.40
25937;DHT22;13733;51.178;4.450;2023-09-12T13:22:42;38.60;44.10
25937;DHT22;13733;51.178;4.450;2023-09-12T13:25:09;38.30;44.50
25937;DHT22;13733;51.178;4.450;2023-09-12T13:27:35;38.90;43.60
25937;DHT22;13733;51.178;4.450;2023-09-12T13:30:01;39.40;43.40
25937;DHT22;13733;51.178;4.450;2023-09-12T13:32:26;39.00;42.10
25937;DHT22;13733;51.178;4.450;2023-09-12T13:34:55;38.40;41.90
25937;DHT22;13733;51.178;4.450;2023-09-12T13:37:21;37.80;42.80
25937;DHT22;13733;51.178;4.450;2023-09-12T13:39:47;37.40;44.10
25937;DHT22;13733;51.178;4.450;2023-09-12T13:42:17;36.70;45.50
25937;DHT22;13733;51.178;4.450;2023-09-12T13:44:49;36.30;46.40
25937;DHT22;13733;51.178;4.450;2023-09-12T13:47:16;35.90;46.60
25937;DHT22;13733;51.178;4.450;2023-09-12T13:49:51;35.40;47.60
25937;DHT22;13733;51.178;4.450;2023-09-12T13:52:22;35.20;48.10
25937;DHT22;13733;51.178;4.450;2023-09-12T13:54:48;34.60;48.80
25937;DHT22;13733;51.178;4.450;2023-09-12T13:57:15;33.80;50.20
25937;DHT22;13733;51.178;4.450;2023-09-12T13:59:42;33.10;53.20
25937;DHT22;13733;51.178;4.450;2023-09-12T14:02:07;32.20;55.10
25937;DHT22;13733;51.178;4.450;2023-09-12T14:04:33;31.70;56.80
25937;DHT22;13733;51.178;4.450;2023-09-12T14:07:00;31.10;59.70
25937;DHT22;13733;51.178;4.450;2023-09-12T14:09:25;30.80;62.10
25937;DHT22;13733;51.178;4.450;2023-09-12T14:11:51;30.60;64.20
25937;DHT22;13733;51.178;4.450;2023-09-12T14:14:17;30.50;64.50
25937;DHT22;13733;51.178;4.450;2023-09-12T14:16:44;30.40;65.80
25937;DHT22;13733;51.178;4.450;2023-09-12T14:19:11;30.30;66.90
25937;DHT22;13733;51.178;4.450;2023-09-12T14:21:37;30.10;68.70
25937;DHT22;13733;51.178;4.450;2023-09-12T14:24:04;29.80;70.30
25937;DHT22;13733;51.178;4.450;2023-09-12T14:26:29;29.80;72.20
25937;DHT22;13733;51.178;4.450;2023-09-12T14:28:55;29.60;74.20
25937;DHT22;13733;51.178;4.450;2023-09-12T14:31:22;29.40;76.80
25937;DHT22;13733;51.178;4.450;2023-09-12T14:33:49;29.00;81.80
25937;DHT22;13733;51.178;4.450;2023-09-12T14:36:15;29.00;88.00
25937;DHT22;13733;51.178;4.450;2023-09-12T14:38:41;28.90;90.60
25937;DHT22;13733;51.178;4.450;2023-09-12T14:41:13;28.80;92.60
25937;DHT22;13733;51.178;4.450;2023-09-12T14:43:39;28.70;94.90
25937;DHT22;13733;51.178;4.450;2023-09-12T14:46:05;28.40;97.00
25937;DHT22;13733;51.178;4.450;2023-09-12T14:48:34;28.10;99.80
25937;DHT22;13733;51.178;4.450;2023-09-12T14:51:01;28.00;99.90
25937;DHT22;13733;51.178;4.450;2023-09-12T14:53:27;28.00;99.90
25937;DHT22;13733;51.178;4.450;2023-09-12T14:55:53;27.90;99.90
25937;DHT22;13733;51.178;4.450;2023-09-12T14:58:19;27.90;99.90
25937;DHT22;13733;51.178;4.450;2023-09-12T15:00:45;27.80;99.90
25937;DHT22;13733;51.178;4.450;2023-09-12T15:03:11;27.70;99.90
25937;DHT22;13733;51.178;4.450;2023-09-12T15:05:37;27.60;99.90
25937;DHT22;13733;51.178;4.450;2023-09-12T15:08:03;27.50;99.90
25937;DHT22;13733;51.178;4.450;2023-09-12T15:10:29;27.50;99.90
25937;DHT22;13733;51.178;4.450;2023-09-12T15:12:55;27.30;99.90
25937;DHT22;13733;51.178;4.450;2023-09-12T15:15:21;27.30;99.90
25937;DHT22;13733;51.178;4.450;2023-09-12T15:17:47;27.10;99.90
25937;DHT22;13733;51.178;4.450;2023-09-12T15:20:13;27.00;99.90
25937;DHT22;13733;51.178;4.450;2023-09-12T15:22:38;26.80;99.90
25937;DHT22;13733;51.178;4.450;2023-09-12T15:25:05;26.80;99.90
25937;DHT22;13733;51.178;4.450;2023-09-12T15:27:31;26.70;99.90
25937;DHT22;13733;51.178;4.450;2023-09-12T15:29:59;26.80;99.90
25937;DHT22;13733;51.178;4.450;2023-09-12T15:32:27;26.70;99.90
25937;DHT22;13733;51.178;4.450;2023-09-12T15:34:53;26.60;99.90
25937;DHT22;13733;51.178;4.450;2023-09-12T15:37:19;26.50;99.90